createdAt,value
2024-03-12T00:03:01.497Z,99998.31
2024-03-12T00:07:03.119Z,99994.19
2024-03-12T00:11:07.600Z,100052.38
2024-03-12T00:15:09.228Z,100002.25
2024-03-12T00:19:11.107Z,100040.78
2024-03-12T00:23:13.088Z,100064.84
2024-03-12T00:27:14.661Z,100058.13
2024-03-12T00:31:17.640Z,100046.34
2024-03-12T00:35:19.199Z,100043.72
2024-03-12T00:39:23.133Z,100013.19
2024-03-12T00:43:24.619Z,100021.84
2024-03-12T00:47:26.253Z,100069.75
2024-03-12T00:51:30.704Z,100023.78
2024-03-12T00:55:32.796Z,100045.25
2024-03-12T00:59:34.337Z,100059.91
2024-03-12T01:03:35.833Z,99969.59
2024-03-12T01:07:39.433Z,100051.22
2024-03-12T01:11:41.415Z,100054.94
2024-03-12T01:15:42.898Z,100008.28
2024-03-12T01:19:44.357Z,100059.63
2024-03-12T01:23:45.837Z,100010.22
2024-03-12T01:27:47.910Z,100068.31
2024-03-12T01:31:51.842Z,100069.41
2024-03-12T01:36:06.329Z,100030.44
2024-03-12T01:40:20.972Z,100087.84
2024-03-12T01:44:23.375Z,100091.38
2024-03-12T01:48:25.480Z,100032.44
2024-03-12T01:52:27.005Z,100097.75
2024-03-12T01:56:28.463Z,100046.66
2024-03-12T02:00:33.142Z,100099.66
2024-03-12T02:04:35.266Z,100085.50
2024-03-12T02:08:36.943Z,100042.94
2024-03-12T02:12:38.559Z,100040.31
2024-03-12T02:16:40.139Z,100027.13
2024-03-12T02:20:41.822Z,100001.63
2024-03-12T02:24:43.334Z,100106.56
2024-03-12T02:28:45.196Z,100107.47
2024-03-12T02:32:48.356Z,100098.38
2024-03-12T02:36:50.219Z,100088.44
2024-03-12T02:40:51.682Z,100064.50
2024-03-12T02:44:53.167Z,100105.72
2024-03-12T02:48:55.234Z,100108.13
2024-03-12T02:52:56.771Z,100098.38
2024-03-12T02:56:58.309Z,100046.38
2024-03-12T03:01:00.027Z,100106.06
2024-03-12T03:05:01.550Z,100060.25
2024-03-12T03:09:10.724Z,100074.94
2024-03-12T03:13:12.483Z,100114.31
2024-03-12T03:17:14.095Z,100071.91
2024-03-12T03:21:15.553Z,100118.69
2024-03-12T03:25:17.224Z,100118.94
2024-03-12T03:29:22.399Z,100056.84
2024-03-12T03:33:24.083Z,100063.66
2024-03-12T03:37:31.878Z,100061.09
2024-03-12T03:41:33.348Z,100100.47
2024-03-12T03:45:34.917Z,100111.00
2024-03-12T03:49:36.425Z,100061.50
2024-03-12T03:53:37.903Z,100113.91
2024-03-12T03:57:39.528Z,100092.91
2024-03-12T04:01:41.051Z,100130.50
2024-03-12T04:05:42.730Z,100093.31
2024-03-12T04:09:44.759Z,100143.91
2024-03-12T04:13:46.253Z,100115.06
2024-03-12T04:17:47.914Z,100165.78
2024-03-12T04:21:49.478Z,100158.88
2024-03-12T04:25:51.467Z,100147.72
2024-03-12T04:29:53.004Z,100097.66
2024-03-12T04:33:54.823Z,100128.50
2024-03-12T04:37:56.531Z,100173.22
2024-03-12T04:42:03.353Z,100108.31
2024-03-12T04:46:05.052Z,100175.97
2024-03-12T04:50:09.068Z,100122.38
2024-03-12T04:54:10.816Z,100185.97
2024-03-12T04:58:12.327Z,100189.25
2024-03-12T05:02:13.886Z,100151.13
2024-03-12T05:06:15.421Z,100196.50
2024-03-12T05:10:18.217Z,100115.94
2024-03-12T05:14:19.905Z,100185.63
2024-03-12T05:18:21.419Z,100203.75
2024-03-12T05:22:23.480Z,100118.50
2024-03-12T05:26:29.866Z,100195.34
2024-03-12T05:30:31.430Z,100210.13
2024-03-12T05:34:40.619Z,100173.19
2024-03-12T05:38:56.578Z,100214.34
2024-03-12T05:43:16.811Z,100202.56
2024-03-12T05:47:36.951Z,100158.41
2024-03-12T05:51:39.193Z,100183.31
2024-03-12T05:55:42.637Z,100179.16
2024-03-12T05:59:44.117Z,100229.44
2024-03-12T06:03:45.762Z,100221.28
2024-03-12T06:07:49.602Z,100191.59
2024-03-12T06:11:51.137Z,100242.25
2024-03-12T06:15:52.673Z,100191.81
2024-03-12T06:19:54.325Z,100258.59
2024-03-12T06:23:55.888Z,100210.94
2024-03-12T06:28:06.241Z,100207.69
2024-03-12T06:32:08.019Z,100266.06
2024-03-12T06:36:13.798Z,100188.91
2024-03-12T06:40:18.288Z,100247.94
2024-03-12T06:44:23.339Z,100275.25
2024-03-12T06:48:24.824Z,100233.47
2024-03-12T06:52:27.846Z,100287.72
2024-03-12T06:56:30.121Z,100283.53
2024-03-12T07:00:38.841Z,100296.50
2024-03-12T07:04:49.458Z,100309.44
2024-03-12T07:08:52.123Z,100295.09
2024-03-12T07:12:55.033Z,100266.94
2024-03-12T07:16:56.871Z,100267.00
2024-03-12T07:20:58.344Z,100260.22
2024-03-12T07:25:00.534Z,100319.16
2024-03-12T07:29:07.893Z,100315.31
2024-03-12T07:33:09.507Z,100254.38
2024-03-12T07:37:11.526Z,100332.38
2024-03-12T07:41:13.130Z,100253.50
2024-03-12T07:45:16.113Z,100278.44
2024-03-12T07:49:22.522Z,100341.91
2024-03-12T07:53:24.108Z,100275.84
2024-03-12T07:57:25.822Z,100293.03
2024-03-12T08:01:27.770Z,100342.81
2024-03-12T08:05:32.054Z,100342.94
2024-03-12T08:09:35.410Z,100328.16
2024-03-12T08:13:36.944Z,100277.66
2024-03-12T08:17:39.372Z,100352.22
2024-03-12T08:21:41.199Z,100297.50
2024-03-12T08:25:54.767Z,100305.28
2024-03-12T08:29:58.699Z,100356.75
2024-03-12T08:34:00.402Z,100358.38
2024-03-12T08:38:05.661Z,100352.47
2024-03-12T08:42:10.495Z,100371.41
2024-03-12T08:46:12.452Z,100364.66
2024-03-12T08:50:14.295Z,100379.25
2024-03-12T08:54:16.035Z,100383.56
2024-03-12T08:58:18.520Z,100362.34
2024-03-12T09:02:20.023Z,100324.47
2024-03-12T09:06:21.822Z,100369.06
2024-03-12T09:10:23.811Z,100335.66
2024-03-12T09:14:25.860Z,100364.41
2024-03-12T09:18:27.858Z,100408.75
2024-03-12T09:22:29.652Z,100358.28
2024-03-12T09:26:31.286Z,100361.75
2024-03-12T09:30:35.294Z,100359.16
2024-03-12T09:34:40.439Z,100417.38
2024-03-12T09:38:43.276Z,100390.84
2024-03-12T09:42:48.398Z,100402.75
2024-03-12T09:46:50.409Z,100374.47
2024-03-12T09:50:51.983Z,100408.03
2024-03-12T09:54:54.462Z,100417.16
2024-03-12T09:58:57.999Z,100404.41
2024-03-12T10:03:00.877Z,100428.59
2024-03-12T10:07:03.103Z,100420.91
2024-03-12T10:11:09.907Z,100437.25
2024-03-12T10:15:13.119Z,100428.66
2024-03-12T10:19:19.583Z,100432.81
2024-03-12T10:23:31.629Z,100422.41
2024-03-12T10:27:33.171Z,100424.25
2024-03-12T10:31:37.261Z,100423.25
2024-03-12T10:35:42.471Z,100374.50
2024-03-12T10:39:45.350Z,100393.47
2024-03-12T10:43:56.414Z,100444.06
2024-03-12T10:47:59.582Z,100389.25
2024-03-12T10:52:02.302Z,100433.72
2024-03-12T10:56:11.543Z,100398.75
2024-03-12T11:00:21.809Z,100395.19
2024-03-12T11:04:24.162Z,100390.91
2024-03-12T11:08:27.083Z,100417.38
2024-03-12T11:12:28.654Z,100393.34
2024-03-12T11:16:35.524Z,100349.63
2024-03-12T11:20:43.126Z,100453.34
2024-03-12T11:24:51.153Z,100448.09
2024-03-12T11:28:52.822Z,100424.78
2024-03-12T11:32:54.436Z,100448.91
2024-03-12T11:37:13.984Z,100452.34
2024-03-12T11:41:17.646Z,100458.34
2024-03-12T11:45:48.212Z,100461.66
2024-03-12T11:49:51.258Z,100448.63
2024-03-12T11:53:53.555Z,100398.19
2024-03-12T11:57:56.105Z,100412.13
2024-03-12T12:02:00.144Z,100472.00
2024-03-12T12:06:03.781Z,100424.13
2024-03-12T12:10:05.315Z,100426.66
2024-03-12T12:14:09.332Z,100470.22
2024-03-12T12:18:11.416Z,100422.28
2024-03-12T12:22:14.218Z,100423.88
2024-03-12T12:26:21.412Z,100470.75
2024-03-12T12:30:23.298Z,100446.00
2024-03-12T12:34:29.845Z,100467.41
2024-03-12T12:38:33.364Z,100409.22
2024-03-12T12:42:39.675Z,100451.13
2024-03-12T12:46:41.401Z,100414.28
2024-03-12T12:50:44.382Z,100434.66
2024-03-12T12:54:49.851Z,100426.22
2024-03-12T12:58:52.750Z,100422.66
2024-03-12T13:02:54.659Z,100452.63
2024-03-12T13:06:58.050Z,100491.38
2024-03-12T13:11:07.122Z,100419.44
2024-03-12T13:15:29.558Z,100455.59
2024-03-12T13:19:32.007Z,100495.78
2024-03-12T13:23:36.113Z,100495.59
2024-03-12T13:27:37.715Z,100492.91
2024-03-12T13:31:41.226Z,100450.16
2024-03-12T13:35:43.376Z,100444.97
2024-03-12T13:39:44.986Z,100442.44
2024-03-12T13:43:46.571Z,100446.81
2024-03-12T13:47:48.155Z,100491.97
2024-03-12T13:51:49.789Z,100499.69
2024-03-12T13:55:51.242Z,100504.16
2024-03-12T13:59:52.770Z,100446.69
2024-03-12T14:03:55.665Z,100499.50
2024-03-12T14:07:57.432Z,100490.28
2024-03-12T14:11:59.914Z,100496.13
2024-03-12T14:16:02.914Z,100463.09
2024-03-12T14:20:11.966Z,100495.59
2024-03-12T14:24:13.450Z,100459.34
2024-03-12T14:28:15.455Z,100512.41
2024-03-12T14:32:17.275Z,100449.97
2024-03-12T14:36:18.830Z,100502.00
2024-03-12T14:40:21.127Z,100513.25
2024-03-12T14:44:23.052Z,100520.97
2024-03-12T14:48:24.643Z,100522.47
2024-03-12T14:52:26.772Z,100472.75
2024-03-12T14:56:28.430Z,100516.94
2024-03-12T15:00:30.432Z,100524.00
2024-03-12T15:04:37.467Z,100529.25
2024-03-12T15:08:39.628Z,100527.56
2024-03-12T15:12:41.947Z,100525.25
2024-03-12T15:16:43.580Z,100523.53
2024-03-12T15:20:47.330Z,100514.91
2024-03-12T15:24:49.382Z,100525.16
2024-03-12T15:28:50.928Z,100476.34
2024-03-12T15:32:52.946Z,100545.06
2024-03-12T15:36:55.258Z,100488.41
2024-03-12T15:40:58.457Z,100545.81
2024-03-12T15:45:00.059Z,100537.09
2024-03-12T15:49:03.582Z,100541.53
2024-03-12T15:53:05.139Z,100481.59
2024-03-12T15:57:09.145Z,100545.72
2024-03-12T16:01:14.173Z,100502.25
2024-03-12T16:05:16.115Z,100544.94
2024-03-12T16:09:18.236Z,100546.78
2024-03-12T16:13:19.904Z,100510.94
2024-03-12T16:17:21.541Z,100555.53
2024-03-12T16:21:23.475Z,100533.41
2024-03-12T16:25:26.064Z,100554.47
2024-03-12T16:29:29.781Z,100556.22
2024-03-12T16:33:31.381Z,100559.81
2024-03-12T16:37:32.918Z,100494.56
2024-03-12T16:41:35.375Z,100547.97
2024-03-12T16:45:36.947Z,100501.47
2024-03-12T16:49:38.556Z,100541.75
2024-03-12T16:53:40.140Z,100565.81
2024-03-12T16:57:42.075Z,100575.63
2024-03-12T17:01:44.996Z,100535.28
2024-03-12T17:05:47.070Z,100528.56
2024-03-12T17:09:48.863Z,100575.97
2024-03-12T17:13:50.927Z,100545.81
2024-03-12T17:17:52.946Z,100599.31
2024-03-12T17:21:55.094Z,100554.66
2024-03-12T17:25:56.969Z,100592.44
2024-03-12T17:30:00.823Z,100602.00
2024-03-12T17:34:05.733Z,100554.09
2024-03-12T17:38:13.951Z,100570.56
2024-03-12T17:42:21.197Z,100589.41
2024-03-12T17:46:24.353Z,100562.06
2024-03-12T17:50:31.513Z,100569.91
2024-03-12T17:54:33.367Z,100629.06
2024-03-12T17:58:38.539Z,100617.13
2024-03-12T18:02:40.365Z,100619.69
2024-03-12T18:06:43.340Z,100586.41
2024-03-12T18:10:48.569Z,100576.91
2024-03-12T18:14:50.113Z,100589.03
2024-03-12T18:18:51.688Z,100583.06
2024-03-12T18:22:54.301Z,100634.56
2024-03-12T18:26:58.320Z,100653.75
2024-03-12T18:31:00.653Z,100594.59
2024-03-12T18:35:02.254Z,100595.53
2024-03-12T18:39:04.946Z,100629.44
2024-03-12T18:43:08.470Z,100638.00
2024-03-12T18:47:10.694Z,100648.28
2024-03-12T18:51:12.383Z,100589.88
2024-03-12T18:55:14.653Z,100636.16
2024-03-12T18:59:16.476Z,100599.94
2024-03-12T19:03:20.977Z,100663.44
2024-03-12T19:07:23.665Z,100668.72
2024-03-12T19:11:25.861Z,100617.06
2024-03-12T19:15:36.680Z,100658.59
2024-03-12T19:19:39.262Z,100663.75
2024-03-12T19:23:40.749Z,100623.38
2024-03-12T19:27:46.935Z,100644.59
2024-03-12T19:31:48.498Z,100685.66
2024-03-12T19:35:51.864Z,100676.41
2024-03-12T19:39:54.280Z,100617.91
2024-03-12T19:43:57.658Z,100643.09
2024-03-12T19:47:59.783Z,100671.44
2024-03-12T19:52:02.300Z,100648.94
2024-03-12T19:56:04.796Z,100664.56
2024-03-12T20:00:13.504Z,100662.75
2024-03-12T20:04:15.223Z,100674.84
2024-03-12T20:08:16.852Z,100643.13
2024-03-12T20:12:18.345Z,100679.44
2024-03-12T20:16:20.279Z,100644.25
2024-03-12T20:20:23.858Z,100662.91
2024-03-12T20:24:25.733Z,100637.16
2024-03-12T20:28:27.300Z,100664.63
2024-03-12T20:32:28.859Z,100668.13
2024-03-12T20:36:33.110Z,100609.06
2024-03-12T20:40:34.669Z,100618.53
2024-03-12T20:44:37.425Z,100622.69
2024-03-12T20:48:40.704Z,100651.72
2024-03-12T20:52:42.339Z,100612.38
2024-03-12T20:56:46.773Z,100655.50
2024-03-12T21:00:48.357Z,100664.16
2024-03-12T21:04:49.915Z,100599.69
2024-03-12T21:08:52.162Z,100603.13
2024-03-12T21:12:53.763Z,100657.09
2024-03-12T21:16:55.722Z,100610.25
2024-03-12T21:20:57.253Z,100600.78
2024-03-12T21:25:00.640Z,100664.44
2024-03-12T21:29:02.488Z,100665.25
2024-03-12T21:33:04.934Z,100585.53
2024-03-12T21:37:07.746Z,100659.41
2024-03-12T21:41:13.153Z,100662.00
2024-03-12T21:45:16.708Z,100596.00
2024-03-12T21:49:18.597Z,100636.06
2024-03-12T21:53:20.838Z,100643.16
2024-03-12T21:57:23.019Z,100659.66
2024-03-12T22:01:25.470Z,100655.13
2024-03-12T22:05:29.526Z,100611.63
2024-03-12T22:09:31.999Z,100664.06
2024-03-12T22:13:39.699Z,100665.84
2024-03-12T22:17:46.566Z,100561.34
2024-03-12T22:21:49.222Z,100628.16
2024-03-12T22:25:50.914Z,100657.41
2024-03-12T22:29:52.396Z,100650.66
2024-03-12T22:33:55.797Z,100661.91
2024-03-12T22:37:57.948Z,100660.03
2024-03-12T22:41:59.775Z,100648.25
2024-03-12T22:46:11.913Z,100655.25
2024-03-12T22:50:15.327Z,100602.03
2024-03-12T22:54:19.221Z,100603.06
2024-03-12T22:58:21.056Z,100616.69
2024-03-12T23:02:23.362Z,100609.19
2024-03-12T23:06:26.256Z,100655.56
2024-03-12T23:10:27.782Z,100611.81
2024-03-12T23:14:30.672Z,100625.56
2024-03-12T23:18:32.164Z,100670.38
2024-03-12T23:22:34.168Z,100598.31
2024-03-12T23:26:35.752Z,100590.41
2024-03-12T23:30:37.276Z,100603.47
2024-03-12T23:34:38.781Z,100634.34
2024-03-12T23:38:40.886Z,100609.41
2024-03-12T23:42:42.484Z,100605.34
2024-03-12T23:46:43.936Z,100641.59
2024-03-12T23:50:45.590Z,100644.78
2024-03-12T23:54:47.130Z,100641.34
2024-03-12T23:58:49.215Z,100637.28
